sensor_id;sensor_type;location;lat;lon;timestamp;temperature;humidity
54960;DHT22;40860;51.710;8.736;2022-07-04T00:02:37;18.10;79.20
54960;DHT22;40860;51.710;8.736;2022-07-04T00:06:40;18.10;79.00
54960;DHT22;40860;51.710;8.736;2022-07-04T00:10:44;18.00;79.40
54960;DHT22;40860;51.710;8.736;2022-07-04T00:14:47;18.00;79.70
54960;DHT22;40860;51.710;8.736;2022-07-04T00:18:50;17.90;80.20
54960;DHT22;40860;51.710;8.736;2022-07-04T00:22:53;17.90;80.60
54960;DHT22;40860;51.710;8.736;2022-07-04T00:26:57;17.80;81.00
54960;DHT22;40860;51.710;8.736;2022-07-04T00:31:00;17.70;81.90
54960;DHT22;40860;51.710;8.736;2022-07-04T00:35:03;17.50;83.10
54960;DHT22;40860;51.710;8.736;2022-07-04T00:39:06;17.30;83.60
54960;DHT22;40860;51.710;8.736;2022-07-04T00:43:10;17.20;84.30
54960;DHT22;40860;51.710;8.736;2022-07-04T00:47:13;17.10;84.80
54960;DHT22;40860;51.710;8.736;2022-07-04T00:51:17;17.10;85.00
54960;DHT22;40860;51.710;8.736;2022-07-04T00:55:20;17.00;85.30
54960;DHT22;40860;51.710;8.736;2022-07-04T00:59:25;17.10;85.50
54960;DHT22;40860;51.710;8.736;2022-07-04T01:03:27;17.00;86.10
54960;DHT22;40860;51.710;8.736;2022-07-04T01:07:30;17.00;85.60
54960;DHT22;40860;51.710;8.736;2022-07-04T01:11:33;17.10;85.80
54960;DHT22;40860;51.710;8.736;2022-07-04T01:15:38;17.20;85.80
54960;DHT22;40860;51.710;8.736;2022-07-04T01:19:41;17.30;85.70
54960;DHT22;40860;51.710;8.736;2022-07-04T01:23:45;17.30;85.30
54960;DHT22;40860;51.710;8.736;2022-07-04T01:27:48;17.30;85.50
54960;DHT22;40860;51.710;8.736;2022-07-04T01:31:50;17.30;85.20
54960;DHT22;40860;51.710;8.736;2022-07-04T01:35:55;17.20;85.70
54960;DHT22;40860;51.710;8.736;2022-07-04T01:39:59;17.20;85.80
54960;DHT22;40860;51.710;8.736;2022-07-04T01:44:02;17.10;86.10
54960;DHT22;40860;51.710;8.736;2022-07-04T01:48:05;17.00;86.70
54960;DHT22;40860;51.710;8.736;2022-07-04T01:52:08;16.90;87.30
54960;DHT22;40860;51.710;8.736;2022-07-04T01:56:12;16.70;87.70
54960;DHT22;40860;51.710;8.736;2022-07-04T02:00:15;16.60;88.50
54960;DHT22;40860;51.710;8.736;2022-07-04T02:04:36;16.60;88.70
54960;DHT22;40860;51.710;8.736;2022-07-04T02:08:39;16.60;88.70
54960;DHT22;40860;51.710;8.736;2022-07-04T02:13:01;16.50;89.20
54960;DHT22;40860;51.710;8.736;2022-07-04T02:17:04;16.50;89.40
54960;DHT22;40860;51.710;8.736;2022-07-04T02:21:07;16.50;89.10
54960;DHT22;40860;51.710;8.736;2022-07-04T02:25:09;16.40;89.00
54960;DHT22;40860;51.710;8.736;2022-07-04T02:29:14;16.40;88.80
54960;DHT22;40860;51.710;8.736;2022-07-04T02:33:17;16.30;88.70
54960;DHT22;40860;51.710;8.736;2022-07-04T02:37:20;16.30;87.80
54960;DHT22;40860;51.710;8.736;2022-07-04T02:41:23;16.30;87.20
54960;DHT22;40860;51.710;8.736;2022-07-04T02:45:27;16.30;87.60
54960;DHT22;40860;51.710;8.736;2022-07-04T02:49:30;16.20;86.90
54960;DHT22;40860;51.710;8.736;2022-07-04T02:53:32;16.20;85.80
54960;DHT22;40860;51.710;8.736;2022-07-04T02:57:35;16.20;85.40
54960;DHT22;40860;51.710;8.736;2022-07-04T03:01:40;16.10;84.90
54960;DHT22;40860;51.710;8.736;2022-07-04T03:05:43;16.10;84.40
54960;DHT22;40860;51.710;8.736;2022-07-04T03:09:46;16.00;83.80
54960;DHT22;40860;51.710;8.736;2022-07-04T03:13:49;16.00;83.80
54960;DHT22;40860;51.710;8.736;2022-07-04T03:17:53;16.00;83.80
54960;DHT22;40860;51.710;8.736;2022-07-04T03:21:56;16.00;83.80
54960;DHT22;40860;51.710;8.736;2022-07-04T03:25:59;15.90;83.30
54960;DHT22;40860;51.710;8.736;2022-07-04T03:30:02;15.90;83.40
54960;DHT22;40860;51.710;8.736;2022-07-04T03:34:06;15.90;83.10
54960;DHT22;40860;51.710;8.736;2022-07-04T03:38:09;15.80;83.40
54960;DHT22;40860;51.710;8.736;2022-07-04T03:42:12;15.70;83.50
54960;DHT22;40860;51.710;8.736;2022-07-04T03:46:15;15.80;83.20
54960;DHT22;40860;51.710;8.736;2022-07-04T03:50:19;15.70;83.20
54960;DHT22;40860;51.710;8.736;2022-07-04T03:54:22;15.80;83.10
54960;DHT22;40860;51.710;8.736;2022-07-04T03:58:27;15.80;83.10
54960;DHT22;40860;51.710;8.736;2022-07-04T04:02:30;15.80;83.00
54960;DHT22;40860;51.710;8.736;2022-07-04T04:06:34;15.80;83.00
54960;DHT22;40860;51.710;8.736;2022-07-04T04:10:37;15.80;83.30
54960;DHT22;40860;51.710;8.736;2022-07-04T04:14:39;15.80;83.30
54960;DHT22;40860;51.710;8.736;2022-07-04T04:18:42;15.80;83.00
54960;DHT22;40860;51.710;8.736;2022-07-04T04:22:46;15.80;83.40
54960;DHT22;40860;51.710;8.736;2022-07-04T04:26:49;15.70;83.70
54960;DHT22;40860;51.710;8.736;2022-07-04T04:30:52;15.80;84.10
54960;DHT22;40860;51.710;8.736;2022-07-04T04:34:55;15.90;83.90
54960;DHT22;40860;51.710;8.736;2022-07-04T04:38:59;15.90;83.70
54960;DHT22;40860;51.710;8.736;2022-07-04T04:43:02;15.90;83.80
54960;DHT22;40860;51.710;8.736;2022-07-04T04:47:05;15.90;84.10
54960;DHT22;40860;51.710;8.736;2022-07-04T04:51:08;16.00;84.20
54960;DHT22;40860;51.710;8.736;2022-07-04T04:55:12;15.90;84.30
54960;DHT22;40860;51.710;8.736;2022-07-04T04:59:15;15.90;84.90
54960;DHT22;40860;51.710;8.736;2022-07-04T05:03:18;15.80;84.80
54960;DHT22;40860;51.710;8.736;2022-07-04T05:07:21;15.80;85.30
54960;DHT22;40860;51.710;8.736;2022-07-04T05:11:25;15.80;85.50
54960;DHT22;40860;51.710;8.736;2022-07-04T05:15:28;15.90;85.80
54960;DHT22;40860;51.710;8.736;2022-07-04T05:19:31;15.90;86.10
54960;DHT22;40860;51.710;8.736;2022-07-04T05:23:34;16.00;86.00
54960;DHT22;40860;51.710;8.736;2022-07-04T05:27:38;15.90;86.20
54960;DHT22;40860;51.710;8.736;2022-07-04T05:31:42;15.90;86.40
54960;DHT22;40860;51.710;8.736;2022-07-04T05:35:45;16.00;86.50
54960;DHT22;40860;51.710;8.736;2022-07-04T05:39:47;16.10;86.80
54960;DHT22;40860;51.710;8.736;2022-07-04T05:43:52;16.10;86.40
54960;DHT22;40860;51.710;8.736;2022-07-04T05:47:59;16.20;86.50
54960;DHT22;40860;51.710;8.736;2022-07-04T05:52:02;16.40;85.90
54960;DHT22;40860;51.710;8.736;2022-07-04T05:56:05;16.50;85.60
54960;DHT22;40860;51.710;8.736;2022-07-04T06:00:11;16.70;85.20
54960;DHT22;40860;51.710;8.736;2022-07-04T06:04:14;16.70;84.70
54960;DHT22;40860;51.710;8.736;2022-07-04T06:08:17;16.70;84.70
54960;DHT22;40860;51.710;8.736;2022-07-04T06:12:21;16.90;84.70
54960;DHT22;40860;51.710;8.736;2022-07-04T06:16:25;17.00;84.80
54960;DHT22;40860;51.710;8.736;2022-07-04T06:20:28;17.20;84.70
54960;DHT22;40860;51.710;8.736;2022-07-04T06:24:31;17.20;84.60
54960;DHT22;40860;51.710;8.736;2022-07-04T06:28:34;17.20;84.70
54960;DHT22;40860;51.710;8.736;2022-07-04T06:32:55;17.40;84.80
54960;DHT22;40860;51.710;8.736;2022-07-04T06:36:59;17.60;84.20
54960;DHT22;40860;51.710;8.736;2022-07-04T06:41:01;17.80;83.90
54960;DHT22;40860;51.710;8.736;2022-07-04T06:45:05;18.00;83.50
54960;DHT22;40860;51.710;8.736;2022-07-04T06:49:09;18.20;83.00
54960;DHT22;40860;51.710;8.736;2022-07-04T06:53:12;18.20;83.20
54960;DHT22;40860;51.710;8.736;2022-07-04T06:57:15;18.00;83.40
54960;DHT22;40860;51.710;8.736;2022-07-04T07:01:33;18.10;83.90
54960;DHT22;40860;51.710;8.736;2022-07-04T07:05:38;18.10;83.80
54960;DHT22;40860;51.710;8.736;2022-07-04T07:10:00;18.10;84.20
54960;DHT22;40860;51.710;8.736;2022-07-04T07:14:04;18.20;83.80
54960;DHT22;40860;51.710;8.736;2022-07-04T07:18:07;18.40;83.80
54960;DHT22;40860;51.710;8.736;2022-07-04T07:22:13;18.50;83.00
54960;DHT22;40860;51.710;8.736;2022-07-04T07:26:16;18.50;83.10
54960;DHT22;40860;51.710;8.736;2022-07-04T07:30:19;20.00;82.30
54960;DHT22;40860;51.710;8.736;2022-07-04T07:34:22;23.50;69.80
54960;DHT22;40860;51.710;8.736;2022-07-04T07:38:27;25.70;58.70
54960;DHT22;40860;51.710;8.736;2022-07-04T07:42:30;26.80;54.70
54960;DHT22;40860;51.710;8.736;2022-07-04T07:46:32;28.00;51.40
54960;DHT22;40860;51.710;8.736;2022-07-04T07:50:35;27.90;49.30
54960;DHT22;40860;51.710;8.736;2022-07-04T07:54:40;26.30;49.80
54960;DHT22;40860;51.710;8.736;2022-07-04T07:59:00;25.30;52.70
54960;DHT22;40860;51.710;8.736;2022-07-04T08:03:03;26.80;51.80
54960;DHT22;40860;51.710;8.736;2022-07-04T08:07:23;27.30;49.20
54960;DHT22;40860;51.710;8.736;2022-07-04T08:11:28;25.30;50.00
54960;DHT22;40860;51.710;8.736;2022-07-04T08:15:31;23.60;53.00
54960;DHT22;40860;51.710;8.736;2022-07-04T08:19:33;23.50;55.00
54960;DHT22;40860;51.710;8.736;2022-07-04T08:23:36;24.50;53.90
54960;DHT22;40860;51.710;8.736;2022-07-04T08:27:54;24.90;52.70
54960;DHT22;40860;51.710;8.736;2022-07-04T08:31:56;25.20;51.40
54960;DHT22;40860;51.710;8.736;2022-07-04T08:35:59;24.70;51.80
54960;DHT22;40860;51.710;8.736;2022-07-04T08:40:03;23.70;52.40
54960;DHT22;40860;51.710;8.736;2022-07-04T08:44:10;22.90;54.40
54960;DHT22;40860;51.710;8.736;2022-07-04T08:48:13;23.30;53.30
54960;DHT22;40860;51.710;8.736;2022-07-04T08:52:24;24.10;52.50
54960;DHT22;40860;51.710;8.736;2022-07-04T08:56:28;24.00;51.00
54960;DHT22;40860;51.710;8.736;2022-07-04T09:00:51;23.50;51.90
54960;DHT22;40860;51.710;8.736;2022-07-04T09:04:54;23.00;52.60
54960;DHT22;40860;51.710;8.736;2022-07-04T09:08:57;23.50;52.70
54960;DHT22;40860;51.710;8.736;2022-07-04T09:13:01;24.30;51.40
54960;DHT22;40860;51.710;8.736;2022-07-04T09:17:15;24.70;49.50
54960;DHT22;40860;51.710;8.736;2022-07-04T09:21:18;24.90;49.10
54960;DHT22;40860;51.710;8.736;2022-07-04T09:25:23;24.10;49.30
54960;DHT22;40860;51.710;8.736;2022-07-04T09:29:26;23.80;50.30
54960;DHT22;40860;51.710;8.736;2022-07-04T09:33:49;23.80;50.30
54960;DHT22;40860;51.710;8.736;2022-07-04T09:37:54;24.00;50.60
54960;DHT22;40860;51.710;8.736;2022-07-04T09:41:59;23.90;48.30
54960;DHT22;40860;51.710;8.736;2022-07-04T09:46:02;24.30;48.70
54960;DHT22;40860;51.710;8.736;2022-07-04T09:50:09;24.70;48.00
54960;DHT22;40860;51.710;8.736;2022-07-04T09:54:17;25.00;48.20
54960;DHT22;40860;51.710;8.736;2022-07-04T09:58:21;24.90;47.50
54960;DHT22;40860;51.710;8.736;2022-07-04T10:02:23;24.50;48.90
54960;DHT22;40860;51.710;8.736;2022-07-04T10:06:31;24.30;48.40
54960;DHT22;40860;51.710;8.736;2022-07-04T10:10:37;24.50;48.10
54960;DHT22;40860;51.710;8.736;2022-07-04T10:14:41;24.90;47.30
54960;DHT22;40860;51.710;8.736;2022-07-04T10:18:44;25.10;46.20
54960;DHT22;40860;51.710;8.736;2022-07-04T10:22:49;25.00;46.60
54960;DHT22;40860;51.710;8.736;2022-07-04T10:26:52;25.10;48.10
54960;DHT22;40860;51.710;8.736;2022-07-04T10:30:57;24.80;47.20
54960;DHT22;40860;51.710;8.736;2022-07-04T10:35:00;24.60;47.60
54960;DHT22;40860;51.710;8.736;2022-07-04T10:39:04;24.40;48.40
54960;DHT22;40860;51.710;8.736;2022-07-04T10:47:54;24.80;48.30
54960;DHT22;40860;51.710;8.736;2022-07-04T10:52:09;25.20;47.20
54960;DHT22;40860;51.710;8.736;2022-07-04T10:56:35;25.10;47.70
54960;DHT22;40860;51.710;8.736;2022-07-04T11:00:38;24.60;47.70
54960;DHT22;40860;51.710;8.736;2022-07-04T11:04:46;24.80;48.50
54960;DHT22;40860;51.710;8.736;2022-07-04T11:09:12;25.20;47.90
54960;DHT22;40860;51.710;8.736;2022-07-04T11:13:17;25.50;47.50
54960;DHT22;40860;51.710;8.736;2022-07-04T11:17:26;25.60;47.00
54960;DHT22;40860;51.710;8.736;2022-07-04T11:21:34;25.80;46.50
54960;DHT22;40860;51.710;8.736;2022-07-04T11:25:41;25.60;46.80
54960;DHT22;40860;51.710;8.736;2022-07-04T11:29:50;25.70;46.90
54960;DHT22;40860;51.710;8.736;2022-07-04T11:33:54;25.70;47.20
54960;DHT22;40860;51.710;8.736;2022-07-04T11:37:58;25.70;47.20
54960;DHT22;40860;51.710;8.736;2022-07-04T11:42:00;25.70;46.10
54960;DHT22;40860;51.710;8.736;2022-07-04T11:46:19;25.70;46.20
54960;DHT22;40860;51.710;8.736;2022-07-04T11:50:22;25.90;45.80
54960;DHT22;40860;51.710;8.736;2022-07-04T11:54:25;25.90;44.50
54960;DHT22;40860;51.710;8.736;2022-07-04T11:58:48;25.90;44.90
54960;DHT22;40860;51.710;8.736;2022-07-04T12:02:52;26.20;43.60
54960;DHT22;40860;51.710;8.736;2022-07-04T12:06:55;26.10;44.10
54960;DHT22;40860;51.710;8.736;2022-07-04T12:10:58;26.40;43.40
54960;DHT22;40860;51.710;8.736;2022-07-04T12:15:03;26.30;43.90
54960;DHT22;40860;51.710;8.736;2022-07-04T12:19:09;26.10;43.40
54960;DHT22;40860;51.710;8.736;2022-07-04T12:23:12;26.30;42.80
54960;DHT22;40860;51.710;8.736;2022-07-04T12:27:18;26.50;44.10
54960;DHT22;40860;51.710;8.736;2022-07-04T12:31:37;26.90;43.40
54960;DHT22;40860;51.710;8.736;2022-07-04T12:35:45;27.10;41.40
54960;DHT22;40860;51.710;8.736;2022-07-04T12:39:49;26.80;42.00
54960;DHT22;40860;51.710;8.736;2022-07-04T12:43:52;26.50;42.00
54960;DHT22;40860;51.710;8.736;2022-07-04T12:47:56;26.20;42.60
54960;DHT22;40860;51.710;8.736;2022-07-04T12:52:11;26.30;42.70
54960;DHT22;40860;51.710;8.736;2022-07-04T12:56:28;26.70;42.50
54960;DHT22;40860;51.710;8.736;2022-07-04T13:00:31;27.30;41.50
54960;DHT22;40860;51.710;8.736;2022-07-04T13:04:37;27.50;41.50
54960;DHT22;40860;51.710;8.736;2022-07-04T13:08:41;27.20;41.50
54960;DHT22;40860;51.710;8.736;2022-07-04T13:12:44;26.20;42.50
54960;DHT22;40860;51.710;8.736;2022-07-04T13:16:47;25.50;43.80
54960;DHT22;40860;51.710;8.736;2022-07-04T13:20:51;25.70;44.20
54960;DHT22;40860;51.710;8.736;2022-07-04T13:24:55;26.50;43.90
54960;DHT22;40860;51.710;8.736;2022-07-04T13:28:58;26.50;41.80
54960;DHT22;40860;51.710;8.736;2022-07-04T13:33:02;26.00;42.40
54960;DHT22;40860;51.710;8.736;2022-07-04T13:37:05;26.00;42.60
54960;DHT22;40860;51.710;8.736;2022-07-04T13:41:10;26.30;42.70
54960;DHT22;40860;51.710;8.736;2022-07-04T13:45:13;26.00;42.90
54960;DHT22;40860;51.710;8.736;2022-07-04T13:49:17;25.70;43.00
54960;DHT22;40860;51.710;8.736;2022-07-04T13:53:20;25.40;43.30
54960;DHT22;40860;51.710;8.736;2022-07-04T13:57:24;25.60;42.70
54960;DHT22;40860;51.710;8.736;2022-07-04T14:01:28;25.80;42.50
54960;DHT22;40860;51.710;8.736;2022-07-04T14:05:31;26.00;42.40
54960;DHT22;40860;51.710;8.736;2022-07-04T14:09:34;26.30;41.90
54960;DHT22;40860;51.710;8.736;2022-07-04T14:13:38;27.10;40.30
54960;DHT22;40860;51.710;8.736;2022-07-04T14:17:41;27.70;37.70
54960;DHT22;40860;51.710;8.736;2022-07-04T14:21:45;28.00;37.40
54960;DHT22;40860;51.710;8.736;2022-07-04T14:25:48;28.20;38.40
54960;DHT22;40860;51.710;8.736;2022-07-04T14:29:52;27.50;39.00
54960;DHT22;40860;51.710;8.736;2022-07-04T14:33:56;26.60;39.40
54960;DHT22;40860;51.710;8.736;2022-07-04T14:37:59;26.70;39.20
54960;DHT22;40860;51.710;8.736;2022-07-04T14:42:03;26.80;39.80
54960;DHT22;40860;51.710;8.736;2022-07-04T14:46:07;26.40;40.80
54960;DHT22;40860;51.710;8.736;2022-07-04T14:50:13;26.80;39.60
54960;DHT22;40860;51.710;8.736;2022-07-04T14:54:16;27.00;39.10
54960;DHT22;40860;51.710;8.736;2022-07-04T14:58:19;27.40;38.60
54960;DHT22;40860;51.710;8.736;2022-07-04T15:02:23;27.70;38.40
54960;DHT22;40860;51.710;8.736;2022-07-04T15:06:26;27.70;38.70
54960;DHT22;40860;51.710;8.736;2022-07-04T15:10:29;27.90;37.70
54960;DHT22;40860;51.710;8.736;2022-07-04T15:14:52;27.90;37.80
54960;DHT22;40860;51.710;8.736;2022-07-04T15:18:56;27.90;37.40
54960;DHT22;40860;51.710;8.736;2022-07-04T15:22:59;27.90;37.70
54960;DHT22;40860;51.710;8.736;2022-07-04T15:27:19;28.10;37.90
54960;DHT22;40860;51.710;8.736;2022-07-04T15:31:22;28.20;36.90
54960;DHT22;40860;51.710;8.736;2022-07-04T15:35:26;28.30;37.50
54960;DHT22;40860;51.710;8.736;2022-07-04T15:39:29;28.60;37.00
54960;DHT22;40860;51.710;8.736;2022-07-04T15:43:33;29.10;36.40
54960;DHT22;40860;51.710;8.736;2022-07-04T15:47:36;29.50;35.90
54960;DHT22;40860;51.710;8.736;2022-07-04T15:51:41;29.50;35.50
54960;DHT22;40860;51.710;8.736;2022-07-04T15:55:46;29.70;35.30
54960;DHT22;40860;51.710;8.736;2022-07-04T15:59:49;29.80;35.90
54960;DHT22;40860;51.710;8.736;2022-07-04T16:03:52;29.80;34.30
54960;DHT22;40860;51.710;8.736;2022-07-04T16:07:57;29.90;34.10
54960;DHT22;40860;51.710;8.736;2022-07-04T16:12:00;30.00;34.80
54960;DHT22;40860;51.710;8.736;2022-07-04T16:16:03;30.30;34.00
54960;DHT22;40860;51.710;8.736;2022-07-04T16:20:07;30.20;34.40
54960;DHT22;40860;51.710;8.736;2022-07-04T16:24:11;30.00;34.60
54960;DHT22;40860;51.710;8.736;2022-07-04T16:28:14;30.20;34.20
54960;DHT22;40860;51.710;8.736;2022-07-04T16:32:17;29.70;34.00
54960;DHT22;40860;51.710;8.736;2022-07-04T16:36:20;29.40;34.60
54960;DHT22;40860;51.710;8.736;2022-07-04T16:40:24;29.50;35.30
54960;DHT22;40860;51.710;8.736;2022-07-04T16:44:28;29.50;34.70
54960;DHT22;40860;51.710;8.736;2022-07-04T16:48:31;29.40;35.00
54960;DHT22;40860;51.710;8.736;2022-07-04T16:52:36;29.40;35.10
54960;DHT22;40860;51.710;8.736;2022-07-04T16:56:40;29.40;34.80
54960;DHT22;40860;51.710;8.736;2022-07-04T17:00:44;28.80;34.40
54960;DHT22;40860;51.710;8.736;2022-07-04T17:04:47;28.10;35.50
54960;DHT22;40860;51.710;8.736;2022-07-04T17:08:50;27.60;36.10
54960;DHT22;40860;51.710;8.736;2022-07-04T17:12:55;27.30;36.80
54960;DHT22;40860;51.710;8.736;2022-07-04T17:16:58;27.00;37.20
54960;DHT22;40860;51.710;8.736;2022-07-04T17:21:01;26.90;37.90
54960;DHT22;40860;51.710;8.736;2022-07-04T17:25:05;26.80;38.20
54960;DHT22;40860;51.710;8.736;2022-07-04T17:29:15;26.60;38.30
54960;DHT22;40860;51.710;8.736;2022-07-04T17:33:18;26.30;38.60
54960;DHT22;40860;51.710;8.736;2022-07-04T17:37:21;26.20;38.90
54960;DHT22;40860;51.710;8.736;2022-07-04T17:41:24;26.00;39.20
54960;DHT22;40860;51.710;8.736;2022-07-04T17:45:47;25.80;39.60
54960;DHT22;40860;51.710;8.736;2022-07-04T17:49:50;25.60;39.70
54960;DHT22;40860;51.710;8.736;2022-07-04T17:53:53;25.30;40.60
54960;DHT22;40860;51.710;8.736;2022-07-04T17:57:56;25.00;41.10
54960;DHT22;40860;51.710;8.736;2022-07-04T18:02:00;24.90;41.20
54960;DHT22;40860;51.710;8.736;2022-07-04T18:06:03;24.60;42.10
54960;DHT22;40860;51.710;8.736;2022-07-04T18:10:06;24.40;42.50
54960;DHT22;40860;51.710;8.736;2022-07-04T18:14:12;24.30;43.00
54960;DHT22;40860;51.710;8.736;2022-07-04T18:18:17;24.10;42.80
54960;DHT22;40860;51.710;8.736;2022-07-04T18:22:20;24.00;43.00
54960;DHT22;40860;51.710;8.736;2022-07-04T18:26:23;23.90;43.50
54960;DHT22;40860;51.710;8.736;2022-07-04T18:30:26;23.80;44.40
54960;DHT22;40860;51.710;8.736;2022-07-04T18:34:35;23.80;44.90
54960;DHT22;40860;51.710;8.736;2022-07-04T18:38:38;23.70;44.70
54960;DHT22;40860;51.710;8.736;2022-07-04T18:42:41;23.80;45.30
54960;DHT22;40860;51.710;8.736;2022-07-04T18:47:02;23.70;45.20
54960;DHT22;40860;51.710;8.736;2022-07-04T18:51:13;23.70;45.90
54960;DHT22;40860;51.710;8.736;2022-07-04T18:55:17;23.60;45.90
54960;DHT22;40860;51.710;8.736;2022-07-04T18:59:20;23.50;45.70
54960;DHT22;40860;51.710;8.736;2022-07-04T19:03:23;23.30;47.00
54960;DHT22;40860;51.710;8.736;2022-07-04T19:07:28;23.10;47.50
54960;DHT22;40860;51.710;8.736;2022-07-04T19:11:30;23.00;47.30
54960;DHT22;40860;51.710;8.736;2022-07-04T19:15:34;23.00;47.40
54960;DHT22;40860;51.710;8.736;2022-07-04T19:19:37;22.90;47.50
54960;DHT22;40860;51.710;8.736;2022-07-04T19:23:41;22.90;48.30
54960;DHT22;40860;51.710;8.736;2022-07-04T19:27:44;22.80;48.40
54960;DHT22;40860;51.710;8.736;2022-07-04T19:31:47;22.70;49.00
54960;DHT22;40860;51.710;8.736;2022-07-04T19:35:50;22.50;50.10
54960;DHT22;40860;51.710;8.736;2022-07-04T19:39:54;22.40;50.00
54960;DHT22;40860;51.710;8.736;2022-07-04T19:43:57;22.40;50.50
54960;DHT22;40860;51.710;8.736;2022-07-04T19:48:00;22.20;50.50
54960;DHT22;40860;51.710;8.736;2022-07-04T19:52:04;22.20;50.90
54960;DHT22;40860;51.710;8.736;2022-07-04T19:56:26;22.10;51.10
54960;DHT22;40860;51.710;8.736;2022-07-04T20:00:29;22.10;51.00
54960;DHT22;40860;51.710;8.736;2022-07-04T20:04:32;22.10;51.20
54960;DHT22;40860;51.710;8.736;2022-07-04T20:08:35;22.00;51.40
54960;DHT22;40860;51.710;8.736;2022-07-04T20:12:39;21.80;51.90
54960;DHT22;40860;51.710;8.736;2022-07-04T20:16:43;21.80;52.20
54960;DHT22;40860;51.710;8.736;2022-07-04T20:20:47;21.70;52.70
54960;DHT22;40860;51.710;8.736;2022-07-04T20:24:52;21.60;53.20
54960;DHT22;40860;51.710;8.736;2022-07-04T20:28:57;21.50;53.70
54960;DHT22;40860;51.710;8.736;2022-07-04T20:33:00;21.30;54.20
54960;DHT22;40860;51.710;8.736;2022-07-04T20:37:03;21.30;54.30
54960;DHT22;40860;51.710;8.736;2022-07-04T20:41:15;21.20;54.80
54960;DHT22;40860;51.710;8.736;2022-07-04T20:45:19;21.10;55.50
54960;DHT22;40860;51.710;8.736;2022-07-04T20:49:22;21.00;55.80
54960;DHT22;40860;51.710;8.736;2022-07-04T20:53:25;20.90;56.30
54960;DHT22;40860;51.710;8.736;2022-07-04T20:57:28;20.70;56.50
54960;DHT22;40860;51.710;8.736;2022-07-04T21:01:32;20.60;57.20
54960;DHT22;40860;51.710;8.736;2022-07-04T21:05:35;20.50;57.90
54960;DHT22;40860;51.710;8.736;2022-07-04T21:09:38;20.30;58.40
54960;DHT22;40860;51.710;8.736;2022-07-04T21:13:41;20.20;59.30
54960;DHT22;40860;51.710;8.736;2022-07-04T21:17:46;20.00;60.00
54960;DHT22;40860;51.710;8.736;2022-07-04T21:21:50;20.00;60.80
54960;DHT22;40860;51.710;8.736;2022-07-04T21:25:53;20.00;60.90
54960;DHT22;40860;51.710;8.736;2022-07-04T21:29:56;19.90;61.70
54960;DHT22;40860;51.710;8.736;2022-07-04T21:34:01;19.90;61.70
54960;DHT22;40860;51.710;8.736;2022-07-04T21:38:04;20.00;61.60
54960;DHT22;40860;51.710;8.736;2022-07-04T21:42:07;20.00;61.90
54960;DHT22;40860;51.710;8.736;2022-07-04T21:46:10;20.10;62.10
54960;DHT22;40860;51.710;8.736;2022-07-04T21:50:15;20.00;62.30
54960;DHT22;40860;51.710;8.736;2022-07-04T21:54:18;19.90;62.30
54960;DHT22;40860;51.710;8.736;2022-07-04T21:58:21;19.80;62.50
54960;DHT22;40860;51.710;8.736;2022-07-04T22:02:25;19.70;62.50
54960;DHT22;40860;51.710;8.736;2022-07-04T22:06:30;19.70;63.10
54960;DHT22;40860;51.710;8.736;2022-07-04T22:10:33;19.60;63.40
54960;DHT22;40860;51.710;8.736;2022-07-04T22:14:36;19.50;63.60
54960;DHT22;40860;51.710;8.736;2022-07-04T22:18:39;19.40;63.80
54960;DHT22;40860;51.710;8.736;2022-07-04T22:22:43;19.30;64.00
54960;DHT22;40860;51.710;8.736;2022-07-04T22:26:46;19.30;64.70
54960;DHT22;40860;51.710;8.736;2022-07-04T22:30:48;19.20;64.60
54960;DHT22;40860;51.710;8.736;2022-07-04T22:34:51;19.10;64.50
54960;DHT22;40860;51.710;8.736;2022-07-04T22:38:56;19.10;64.70
54960;DHT22;40860;51.710;8.736;2022-07-04T22:42:59;19.10;64.40
54960;DHT22;40860;51.710;8.736;2022-07-04T22:47:01;19.00;64.50
54960;DHT22;40860;51.710;8.736;2022-07-04T22:51:04;18.90;64.40
54960;DHT22;40860;51.710;8.736;2022-07-04T22:55:15;18.80;64.60
54960;DHT22;40860;51.710;8.736;2022-07-04T22:59:18;18.80;64.70
54960;DHT22;40860;51.710;8.736;2022-07-04T23:03:21;18.70;65.10
54960;DHT22;40860;51.710;8.736;2022-07-04T23:07:24;18.60;65.50
54960;DHT22;40860;51.710;8.736;2022-07-04T23:11:28;18.60;66.40
54960;DHT22;40860;51.710;8.736;2022-07-04T23:15:31;18.50;66.20
54960;DHT22;40860;51.710;8.736;2022-07-04T23:19:34;18.40;66.60
54960;DHT22;40860;51.710;8.736;2022-07-04T23:23:37;18.20;67.90
54960;DHT22;40860;51.710;8.736;2022-07-04T23:27:41;18.10;68.50
54960;DHT22;40860;51.710;8.736;2022-07-04T23:31:44;18.00;69.10
54960;DHT22;40860;51.710;8.736;2022-07-04T23:35:47;17.80;69.70
54960;DHT22;40860;51.710;8.736;2022-07-04T23:39:49;17.70;70.20
54960;DHT22;40860;51.710;8.736;2022-07-04T23:43:54;17.60;71.20
54960;DHT22;40860;51.710;8.736;2022-07-04T23:47:56;17.50;71.60
54960;DHT22;40860;51.710;8.736;2022-07-04T23:51:59;17.40;71.70
54960;DHT22;40860;51.710;8.736;2022-07-04T23:56:02;17.30;72.60
